sensor_id;sensor_type;location;lat;lon;timestamp;temperature;humidity
14317;DHT22;7242;50.858;6.586;2023-02-14T00:00:51;6.10;99.90
14317;DHT22;7242;50.858;6.586;2023-02-14T00:03:52;6.00;99.90
14317;DHT22;7242;50.858;6.586;2023-02-14T00:12:56;5.90;99.90
14317;DHT22;7242;50.858;6.586;2023-02-14T00:15:56;5.80;99.90
14317;DHT22;7242;50.858;6.586;2023-02-14T00:25:06;5.60;99.90
14317;DHT22;7242;50.858;6.586;2023-02-14T00:34:09;5.60;99.90
14317;DHT22;7242;50.858;6.586;2023-02-14T00:37:10;5.50;99.90
14317;DHT22;7242;50.858;6.586;2023-02-14T00:46:15;5.50;99.90
14317;DHT22;7242;50.858;6.586;2023-02-14T00:52:17;5.40;99.90
14317;DHT22;7242;50.858;6.586;2023-02-14T00:55:18;5.40;99.90
14317;DHT22;7242;50.858;6.586;2023-02-14T01:01:21;5.40;99.90
14317;DHT22;7242;50.858;6.586;2023-02-14T01:04:22;5.30;99.90
14317;DHT22;7242;50.858;6.586;2023-02-14T01:07:23;5.40;99.90
14317;DHT22;7242;50.858;6.586;2023-02-14T01:10:23;5.30;99.90
14317;DHT22;7242;50.858;6.586;2023-02-14T01:16:27;5.30;99.90
14317;DHT22;7242;50.858;6.586;2023-02-14T01:19:28;5.30;99.90
14317;DHT22;7242;50.858;6.586;2023-02-14T01:22:34;5.20;99.90
14317;DHT22;7242;50.858;6.586;2023-02-14T01:25:36;5.20;99.90
14317;DHT22;7242;50.858;6.586;2023-02-14T01:28:37;5.20;99.90
14317;DHT22;7242;50.858;6.586;2023-02-14T01:31:38;5.20;99.90
14317;DHT22;7242;50.858;6.586;2023-02-14T01:34:39;5.20;99.90
14317;DHT22;7242;50.858;6.586;2023-02-14T01:40:44;5.20;99.90
14317;DHT22;7242;50.858;6.586;2023-02-14T01:46:59;5.10;99.90
14317;DHT22;7242;50.858;6.586;2023-02-14T01:50:08;5.20;99.90
14317;DHT22;7242;50.858;6.586;2023-02-14T01:53:18;5.10;99.90
14317;DHT22;7242;50.858;6.586;2023-02-14T01:56:26;5.10;99.90
14317;DHT22;7242;50.858;6.586;2023-02-14T01:59:33;5.20;99.90
14317;DHT22;7242;50.858;6.586;2023-02-14T02:02:35;5.10;99.90
14317;DHT22;7242;50.858;6.586;2023-02-14T02:05:37;5.20;99.90
14317;DHT22;7242;50.858;6.586;2023-02-14T02:08:51;5.20;99.90
14317;DHT22;7242;50.858;6.586;2023-02-14T02:11:53;5.20;99.90
14317;DHT22;7242;50.858;6.586;2023-02-14T02:14:56;5.10;99.90
14317;DHT22;7242;50.858;6.586;2023-02-14T02:18:06;5.00;99.90
14317;DHT22;7242;50.858;6.586;2023-02-14T02:34:34;4.70;99.90
14317;DHT22;7242;50.858;6.586;2023-02-14T02:50:54;4.70;99.90
14317;DHT22;7242;50.858;6.586;2023-02-14T02:54:33;4.60;99.90
14317;DHT22;7242;50.858;6.586;2023-02-14T02:57:38;4.70;99.90
14317;DHT22;7242;50.858;6.586;2023-02-14T03:00:41;4.60;99.90
14317;DHT22;7242;50.858;6.586;2023-02-14T03:03:45;4.70;99.90
14317;DHT22;7242;50.858;6.586;2023-02-14T03:07:06;4.70;99.90
14317;DHT22;7242;50.858;6.586;2023-02-14T03:10:30;4.70;99.90
14317;DHT22;7242;50.858;6.586;2023-02-14T03:17:08;4.70;99.90
14317;DHT22;7242;50.858;6.586;2023-02-14T03:20:22;4.70;99.90
14317;DHT22;7242;50.858;6.586;2023-02-14T03:23:32;4.70;99.90
14317;DHT22;7242;50.858;6.586;2023-02-14T03:30:02;4.70;99.90
14317;DHT22;7242;50.858;6.586;2023-02-14T03:39:58;4.30;99.90
14317;DHT22;7242;50.858;6.586;2023-02-14T03:43:06;4.30;99.90
14317;DHT22;7242;50.858;6.586;2023-02-14T03:46:19;4.20;99.90
14317;DHT22;7242;50.858;6.586;2023-02-14T03:49:26;4.20;99.90
14317;DHT22;7242;50.858;6.586;2023-02-14T03:52:29;4.20;99.90
14317;DHT22;7242;50.858;6.586;2023-02-14T03:55:46;4.20;99.90
14317;DHT22;7242;50.858;6.586;2023-02-14T03:58:52;4.10;99.90
14317;DHT22;7242;50.858;6.586;2023-02-14T04:05:08;4.00;99.90
14317;DHT22;7242;50.858;6.586;2023-02-14T04:08:11;4.00;99.90
14317;DHT22;7242;50.858;6.586;2023-02-14T04:14:20;3.80;99.90
14317;DHT22;7242;50.858;6.586;2023-02-14T04:17:21;3.70;99.90
14317;DHT22;7242;50.858;6.586;2023-02-14T04:29:53;3.60;99.90
14317;DHT22;7242;50.858;6.586;2023-02-14T04:32:54;3.70;99.90
14317;DHT22;7242;50.858;6.586;2023-02-14T04:35:55;3.70;99.90
14317;DHT22;7242;50.858;6.586;2023-02-14T04:38:55;3.70;99.90
14317;DHT22;7242;50.858;6.586;2023-02-14T04:41:56;3.80;99.90
14317;DHT22;7242;50.858;6.586;2023-02-14T04:47:58;3.80;99.90
14317;DHT22;7242;50.858;6.586;2023-02-14T04:54:00;3.80;99.90
14317;DHT22;7242;50.858;6.586;2023-02-14T05:00:03;3.70;99.90
14317;DHT22;7242;50.858;6.586;2023-02-14T05:03:04;3.60;99.90
14317;DHT22;7242;50.858;6.586;2023-02-14T05:06:05;3.40;99.90
14317;DHT22;7242;50.858;6.586;2023-02-14T05:12:06;3.20;99.90
14317;DHT22;7242;50.858;6.586;2023-02-14T05:15:08;3.20;99.90
14317;DHT22;7242;50.858;6.586;2023-02-14T05:18:08;3.10;99.90
14317;DHT22;7242;50.858;6.586;2023-02-14T05:21:09;3.10;99.90
14317;DHT22;7242;50.858;6.586;2023-02-14T05:30:13;3.20;99.90
14317;DHT22;7242;50.858;6.586;2023-02-14T05:33:14;3.30;99.90
14317;DHT22;7242;50.858;6.586;2023-02-14T05:45:18;3.20;99.90
14317;DHT22;7242;50.858;6.586;2023-02-14T05:48:18;3.30;99.90
14317;DHT22;7242;50.858;6.586;2023-02-14T05:54:20;3.20;99.90
14317;DHT22;7242;50.858;6.586;2023-02-14T05:57:21;3.10;99.90
14317;DHT22;7242;50.858;6.586;2023-02-14T06:00:22;3.10;99.90
14317;DHT22;7242;50.858;6.586;2023-02-14T06:03:24;3.10;99.90
14317;DHT22;7242;50.858;6.586;2023-02-14T06:06:25;3.10;99.90
14317;DHT22;7242;50.858;6.586;2023-02-14T06:18:29;3.10;99.90
14317;DHT22;7242;50.858;6.586;2023-02-14T06:21:30;3.10;99.90
14317;DHT22;7242;50.858;6.586;2023-02-14T06:30:33;3.10;99.90
14317;DHT22;7242;50.858;6.586;2023-02-14T06:33:33;3.00;99.90
14317;DHT22;7242;50.858;6.586;2023-02-14T06:42:37;3.10;99.90
14317;DHT22;7242;50.858;6.586;2023-02-14T06:45:37;3.10;99.90
14317;DHT22;7242;50.858;6.586;2023-02-14T06:48:38;3.10;99.90
14317;DHT22;7242;50.858;6.586;2023-02-14T06:54:40;3.20;99.90
14317;DHT22;7242;50.858;6.586;2023-02-14T06:57:40;3.30;99.90
14317;DHT22;7242;50.858;6.586;2023-02-14T07:03:42;3.20;99.90
14317;DHT22;7242;50.858;6.586;2023-02-14T07:06:46;4.50;99.90
14317;DHT22;7242;50.858;6.586;2023-02-14T07:09:47;3.30;99.90
14317;DHT22;7242;50.858;6.586;2023-02-14T07:15:48;3.20;99.90
14317;DHT22;7242;50.858;6.586;2023-02-14T07:24:51;3.20;99.90
14317;DHT22;7242;50.858;6.586;2023-02-14T07:27:52;3.10;99.90
14317;DHT22;7242;50.858;6.586;2023-02-14T07:30:53;3.20;99.90
14317;DHT22;7242;50.858;6.586;2023-02-14T07:33:53;3.20;99.90
14317;DHT22;7242;50.858;6.586;2023-02-14T07:42:57;3.50;99.90
14317;DHT22;7242;50.858;6.586;2023-02-14T07:45:59;3.40;99.90
14317;DHT22;7242;50.858;6.586;2023-02-14T07:52:02;3.60;99.90
14317;DHT22;7242;50.858;6.586;2023-02-14T07:58:04;5.30;99.90
14317;DHT22;7242;50.858;6.586;2023-02-14T08:04:06;8.10;99.90
14317;DHT22;7242;50.858;6.586;2023-02-14T08:07:07;8.50;99.90
14317;DHT22;7242;50.858;6.586;2023-02-14T08:10:07;8.90;99.90
14317;DHT22;7242;50.858;6.586;2023-02-14T08:19:12;8.80;99.90
14317;DHT22;7242;50.858;6.586;2023-02-14T08:22:12;8.70;99.90
14317;DHT22;7242;50.858;6.586;2023-02-14T08:25:13;8.60;99.90
14317;DHT22;7242;50.858;6.586;2023-02-14T08:31:26;8.20;99.90
14317;DHT22;7242;50.858;6.586;2023-02-14T08:34:27;8.00;99.90
14317;DHT22;7242;50.858;6.586;2023-02-14T08:37:28;7.90;99.90
14317;DHT22;7242;50.858;6.586;2023-02-14T08:40:29;7.90;99.90
14317;DHT22;7242;50.858;6.586;2023-02-14T08:46:30;7.80;99.90
14317;DHT22;7242;50.858;6.586;2023-02-14T08:55:34;8.00;99.90
14317;DHT22;7242;50.858;6.586;2023-02-14T08:58:36;8.10;99.90
14317;DHT22;7242;50.858;6.586;2023-02-14T09:01:37;7.90;99.90
14317;DHT22;7242;50.858;6.586;2023-02-14T09:04:38;7.80;99.90
14317;DHT22;7242;50.858;6.586;2023-02-14T09:10:40;7.90;99.90
14317;DHT22;7242;50.858;6.586;2023-02-14T09:13:41;8.00;99.90
14317;DHT22;7242;50.858;6.586;2023-02-14T09:16:42;7.90;99.90
14317;DHT22;7242;50.858;6.586;2023-02-14T09:19:43;7.90;99.90
14317;DHT22;7242;50.858;6.586;2023-02-14T09:28:46;8.00;99.90
14317;DHT22;7242;50.858;6.586;2023-02-14T09:47:51;8.30;99.90
14317;DHT22;7242;50.858;6.586;2023-02-14T09:51:12;8.40;99.90
14317;DHT22;7242;50.858;6.586;2023-02-14T09:54:18;8.50;99.90
14317;DHT22;7242;50.858;6.586;2023-02-14T10:10:39;8.80;99.90
14317;DHT22;7242;50.858;6.586;2023-02-14T10:13:49;9.00;99.90
14317;DHT22;7242;50.858;6.586;2023-02-14T10:17:25;9.10;99.90
14317;DHT22;7242;50.858;6.586;2023-02-14T10:20:45;9.20;99.90
14317;DHT22;7242;50.858;6.586;2023-02-14T10:23:54;9.30;99.90
14317;DHT22;7242;50.858;6.586;2023-02-14T10:30:19;9.50;99.90
14317;DHT22;7242;50.858;6.586;2023-02-14T10:33:23;9.50;99.90
14317;DHT22;7242;50.858;6.586;2023-02-14T10:43:12;9.90;99.90
14317;DHT22;7242;50.858;6.586;2023-02-14T10:49:57;10.00;99.90
14317;DHT22;7242;50.858;6.586;2023-02-14T10:53:28;10.10;99.90
14317;DHT22;7242;50.858;6.586;2023-02-14T10:56:42;10.10;99.90
14317;DHT22;7242;50.858;6.586;2023-02-14T11:00:03;10.10;99.90
14317;DHT22;7242;50.858;6.586;2023-02-14T11:03:08;10.10;99.90
14317;DHT22;7242;50.858;6.586;2023-02-14T11:06:10;10.20;99.90
14317;DHT22;7242;50.858;6.586;2023-02-14T11:12:36;10.40;99.90
14317;DHT22;7242;50.858;6.586;2023-02-14T11:15:38;10.50;99.90
14317;DHT22;7242;50.858;6.586;2023-02-14T11:18:40;10.60;99.90
14317;DHT22;7242;50.858;6.586;2023-02-14T11:21:43;10.70;99.90
14317;DHT22;7242;50.858;6.586;2023-02-14T11:27:48;10.90;99.90
14317;DHT22;7242;50.858;6.586;2023-02-14T11:30:50;11.00;99.90
14317;DHT22;7242;50.858;6.586;2023-02-14T11:39:57;11.20;99.90
14317;DHT22;7242;50.858;6.586;2023-02-14T11:43:00;11.30;99.90
14317;DHT22;7242;50.858;6.586;2023-02-14T11:49:23;11.20;99.90
14317;DHT22;7242;50.858;6.586;2023-02-14T11:52:27;11.30;99.90
14317;DHT22;7242;50.858;6.586;2023-02-14T11:55:31;11.30;99.90
14317;DHT22;7242;50.858;6.586;2023-02-14T11:58:38;11.40;99.90
14317;DHT22;7242;50.858;6.586;2023-02-14T12:01:40;11.50;99.90
14317;DHT22;7242;50.858;6.586;2023-02-14T12:04:43;11.60;99.90
14317;DHT22;7242;50.858;6.586;2023-02-14T12:07:45;11.50;99.90
14317;DHT22;7242;50.858;6.586;2023-02-14T12:11:00;11.60;99.90
14317;DHT22;7242;50.858;6.586;2023-02-14T12:17:27;11.70;99.90
14317;DHT22;7242;50.858;6.586;2023-02-14T12:24:14;11.80;99.90
14317;DHT22;7242;50.858;6.586;2023-02-14T12:27:22;11.90;99.90
14317;DHT22;7242;50.858;6.586;2023-02-14T12:30:28;12.00;99.90
14317;DHT22;7242;50.858;6.586;2023-02-14T12:33:30;12.00;99.90
14317;DHT22;7242;50.858;6.586;2023-02-14T12:40:20;12.10;99.90
14317;DHT22;7242;50.858;6.586;2023-02-14T12:49:56;12.20;99.90
14317;DHT22;7242;50.858;6.586;2023-02-14T13:03:09;12.40;99.90
14317;DHT22;7242;50.858;6.586;2023-02-14T13:06:26;12.40;99.90
14317;DHT22;7242;50.858;6.586;2023-02-14T13:09:35;12.40;99.90
14317;DHT22;7242;50.858;6.586;2023-02-14T13:22:28;12.20;99.90
14317;DHT22;7242;50.858;6.586;2023-02-14T13:25:33;12.50;99.90
14317;DHT22;7242;50.858;6.586;2023-02-14T13:28:37;12.60;99.90
14317;DHT22;7242;50.858;6.586;2023-02-14T13:31:39;12.50;99.90
14317;DHT22;7242;50.858;6.586;2023-02-14T13:34:45;12.50;99.90
14317;DHT22;7242;50.858;6.586;2023-02-14T13:37:52;12.60;99.90
14317;DHT22;7242;50.858;6.586;2023-02-14T13:40:55;12.60;99.90
14317;DHT22;7242;50.858;6.586;2023-02-14T13:44:01;12.70;99.90
14317;DHT22;7242;50.858;6.586;2023-02-14T13:47:02;12.70;99.90
14317;DHT22;7242;50.858;6.586;2023-02-14T13:50:04;12.70;99.90
14317;DHT22;7242;50.858;6.586;2023-02-14T13:53:10;12.70;99.90
14317;DHT22;7242;50.858;6.586;2023-02-14T14:02:30;12.80;99.90
14317;DHT22;7242;50.858;6.586;2023-02-14T14:08:39;12.90;99.90
14317;DHT22;7242;50.858;6.586;2023-02-14T14:14:41;13.00;99.90
14317;DHT22;7242;50.858;6.586;2023-02-14T14:21:32;13.00;99.90
14317;DHT22;7242;50.858;6.586;2023-02-14T14:24:36;13.00;99.90
14317;DHT22;7242;50.858;6.586;2023-02-14T14:27:41;13.00;99.90
14317;DHT22;7242;50.858;6.586;2023-02-14T14:30:44;13.00;99.90
14317;DHT22;7242;50.858;6.586;2023-02-14T14:36:46;13.00;99.90
14317;DHT22;7242;50.858;6.586;2023-02-14T14:39:53;13.00;99.90
14317;DHT22;7242;50.858;6.586;2023-02-14T14:42:57;13.00;99.90
14317;DHT22;7242;50.858;6.586;2023-02-14T14:46:01;13.00;99.90
14317;DHT22;7242;50.858;6.586;2023-02-14T14:52:05;12.90;99.90
14317;DHT22;7242;50.858;6.586;2023-02-14T14:55:07;13.00;99.90
14317;DHT22;7242;50.858;6.586;2023-02-14T14:58:28;12.90;99.90
14317;DHT22;7242;50.858;6.586;2023-02-14T15:01:36;12.90;99.90
14317;DHT22;7242;50.858;6.586;2023-02-14T15:04:36;12.90;99.90
14317;DHT22;7242;50.858;6.586;2023-02-14T15:07:37;12.90;99.90
14317;DHT22;7242;50.858;6.586;2023-02-14T15:10:38;12.90;99.90
14317;DHT22;7242;50.858;6.586;2023-02-14T15:13:46;12.70;99.90
14317;DHT22;7242;50.858;6.586;2023-02-14T15:17:05;12.90;99.90
14317;DHT22;7242;50.858;6.586;2023-02-14T15:20:29;12.90;99.90
14317;DHT22;7242;50.858;6.586;2023-02-14T15:23:29;12.80;99.90
14317;DHT22;7242;50.858;6.586;2023-02-14T15:26:31;12.70;99.90
14317;DHT22;7242;50.858;6.586;2023-02-14T15:29:33;12.70;99.90
14317;DHT22;7242;50.858;6.586;2023-02-14T15:32:35;12.70;99.90
14317;DHT22;7242;50.858;6.586;2023-02-14T15:35:39;12.60;99.90
14317;DHT22;7242;50.858;6.586;2023-02-14T15:38:43;12.50;99.90
14317;DHT22;7242;50.858;6.586;2023-02-14T15:44:46;12.50;99.90
14317;DHT22;7242;50.858;6.586;2023-02-14T15:47:51;12.50;99.90
14317;DHT22;7242;50.858;6.586;2023-02-14T15:50:54;12.50;99.90
14317;DHT22;7242;50.858;6.586;2023-02-14T15:53:59;12.40;99.90
14317;DHT22;7242;50.858;6.586;2023-02-14T15:57:02;12.40;99.90
14317;DHT22;7242;50.858;6.586;2023-02-14T16:00:04;12.40;99.90
14317;DHT22;7242;50.858;6.586;2023-02-14T16:03:20;12.40;99.90
14317;DHT22;7242;50.858;6.586;2023-02-14T16:06:37;12.30;99.90
14317;DHT22;7242;50.858;6.586;2023-02-14T16:12:39;12.20;99.90
14317;DHT22;7242;50.858;6.586;2023-02-14T16:16:04;12.10;99.90
14317;DHT22;7242;50.858;6.586;2023-02-14T16:19:44;12.10;99.90
14317;DHT22;7242;50.858;6.586;2023-02-14T16:25:47;11.90;99.90
14317;DHT22;7242;50.858;6.586;2023-02-14T16:31:54;11.90;99.90
14317;DHT22;7242;50.858;6.586;2023-02-14T16:34:55;11.80;99.90
14317;DHT22;7242;50.858;6.586;2023-02-14T16:47:01;11.50;99.90
14317;DHT22;7242;50.858;6.586;2023-02-14T16:50:06;11.50;99.90
14317;DHT22;7242;50.858;6.586;2023-02-14T16:53:13;11.30;99.90
14317;DHT22;7242;50.858;6.586;2023-02-14T16:56:20;11.30;99.90
14317;DHT22;7242;50.858;6.586;2023-02-14T17:02:24;11.00;99.90
14317;DHT22;7242;50.858;6.586;2023-02-14T17:05:29;11.00;99.90
14317;DHT22;7242;50.858;6.586;2023-02-14T17:08:31;10.90;99.90
14317;DHT22;7242;50.858;6.586;2023-02-14T17:11:34;10.80;99.90
14317;DHT22;7242;50.858;6.586;2023-02-14T17:14:38;10.70;99.90
14317;DHT22;7242;50.858;6.586;2023-02-14T17:26:43;10.50;99.90
14317;DHT22;7242;50.858;6.586;2023-02-14T17:29:44;10.50;99.90
14317;DHT22;7242;50.858;6.586;2023-02-14T17:32:45;10.50;99.90
14317;DHT22;7242;50.858;6.586;2023-02-14T17:41:49;10.20;99.90
14317;DHT22;7242;50.858;6.586;2023-02-14T18:02:57;9.50;99.90
14317;DHT22;7242;50.858;6.586;2023-02-14T18:05:59;9.50;99.90
14317;DHT22;7242;50.858;6.586;2023-02-14T18:09:04;9.50;99.90
14317;DHT22;7242;50.858;6.586;2023-02-14T18:15:07;9.30;99.90
14317;DHT22;7242;50.858;6.586;2023-02-14T18:18:07;9.20;99.90
14317;DHT22;7242;50.858;6.586;2023-02-14T18:21:10;9.10;99.90
14317;DHT22;7242;50.858;6.586;2023-02-14T18:24:11;9.10;99.90
14317;DHT22;7242;50.858;6.586;2023-02-14T18:33:16;8.80;99.90
14317;DHT22;7242;50.858;6.586;2023-02-14T18:36:20;8.70;99.90
14317;DHT22;7242;50.858;6.586;2023-02-14T18:48:27;8.40;99.90
14317;DHT22;7242;50.858;6.586;2023-02-14T18:51:30;8.30;99.90
14317;DHT22;7242;50.858;6.586;2023-02-14T18:57:33;8.20;99.90
14317;DHT22;7242;50.858;6.586;2023-02-14T19:00:34;8.10;99.90
14317;DHT22;7242;50.858;6.586;2023-02-14T19:03:35;8.00;99.90
14317;DHT22;7242;50.858;6.586;2023-02-14T19:06:39;7.80;99.90
14317;DHT22;7242;50.858;6.586;2023-02-14T19:18:44;7.40;99.90
14317;DHT22;7242;50.858;6.586;2023-02-14T19:24:46;7.20;99.90
14317;DHT22;7242;50.858;6.586;2023-02-14T19:27:47;7.10;99.90
14317;DHT22;7242;50.858;6.586;2023-02-14T19:33:49;6.90;99.90
14317;DHT22;7242;50.858;6.586;2023-02-14T19:36:51;6.90;99.90
14317;DHT22;7242;50.858;6.586;2023-02-14T19:39:55;6.90;99.90
14317;DHT22;7242;50.858;6.586;2023-02-14T19:42:55;6.70;99.90
14317;DHT22;7242;50.858;6.586;2023-02-14T19:48:58;6.50;99.90
14317;DHT22;7242;50.858;6.586;2023-02-14T19:51:59;6.40;99.90
14317;DHT22;7242;50.858;6.586;2023-02-14T19:54:59;6.30;99.90
14317;DHT22;7242;50.858;6.586;2023-02-14T19:58:02;6.20;99.90
14317;DHT22;7242;50.858;6.586;2023-02-14T20:04:06;5.90;99.90
14317;DHT22;7242;50.858;6.586;2023-02-14T20:07:09;6.00;99.90
14317;DHT22;7242;50.858;6.586;2023-02-14T20:10:11;5.90;99.90
14317;DHT22;7242;50.858;6.586;2023-02-14T20:19:17;5.70;99.90
14317;DHT22;7242;50.858;6.586;2023-02-14T20:28:20;5.70;99.90
14317;DHT22;7242;50.858;6.586;2023-02-14T20:31:21;5.60;99.90
14317;DHT22;7242;50.858;6.586;2023-02-14T20:34:22;5.60;99.90
14317;DHT22;7242;50.858;6.586;2023-02-14T20:37:22;5.60;99.90
14317;DHT22;7242;50.858;6.586;2023-02-14T20:40:23;5.60;99.90
14317;DHT22;7242;50.858;6.586;2023-02-14T20:43:24;5.50;99.90
14317;DHT22;7242;50.858;6.586;2023-02-14T20:46:24;5.50;99.90
14317;DHT22;7242;50.858;6.586;2023-02-14T20:49:27;5.50;99.90
14317;DHT22;7242;50.858;6.586;2023-02-14T20:52:28;5.30;99.90
14317;DHT22;7242;50.858;6.586;2023-02-14T20:55:28;5.30;99.90
14317;DHT22;7242;50.858;6.586;2023-02-14T20:58:31;5.30;99.90
14317;DHT22;7242;50.858;6.586;2023-02-14T21:01:32;5.20;99.90
14317;DHT22;7242;50.858;6.586;2023-02-14T21:04:33;5.20;99.90
14317;DHT22;7242;50.858;6.586;2023-02-14T21:07:34;5.10;99.90
14317;DHT22;7242;50.858;6.586;2023-02-14T21:10:35;5.00;99.90
14317;DHT22;7242;50.858;6.586;2023-02-14T21:13:36;5.00;99.90
14317;DHT22;7242;50.858;6.586;2023-02-14T21:16:36;4.90;99.90
14317;DHT22;7242;50.858;6.586;2023-02-14T21:19:37;4.80;99.90
14317;DHT22;7242;50.858;6.586;2023-02-14T21:22:38;4.70;99.90
14317;DHT22;7242;50.858;6.586;2023-02-14T21:25:39;4.50;99.90
14317;DHT22;7242;50.858;6.586;2023-02-14T21:28:39;4.50;99.90
14317;DHT22;7242;50.858;6.586;2023-02-14T21:31:40;4.40;99.90
14317;DHT22;7242;50.858;6.586;2023-02-14T21:34:41;4.30;99.90
14317;DHT22;7242;50.858;6.586;2023-02-14T21:37:42;4.30;99.90
14317;DHT22;7242;50.858;6.586;2023-02-14T21:40:43;4.30;99.90
14317;DHT22;7242;50.858;6.586;2023-02-14T21:43:45;4.30;99.90
14317;DHT22;7242;50.858;6.586;2023-02-14T21:46:46;4.30;99.90
14317;DHT22;7242;50.858;6.586;2023-02-14T21:49:46;4.30;99.90
14317;DHT22;7242;50.858;6.586;2023-02-14T21:53:05;4.30;99.90
14317;DHT22;7242;50.858;6.586;2023-02-14T21:56:08;4.30;99.90
14317;DHT22;7242;50.858;6.586;2023-02-14T21:59:10;4.20;99.90
14317;DHT22;7242;50.858;6.586;2023-02-14T22:02:11;4.20;99.90
14317;DHT22;7242;50.858;6.586;2023-02-14T22:05:12;4.20;99.90
14317;DHT22;7242;50.858;6.586;2023-02-14T22:08:12;4.10;99.90
14317;DHT22;7242;50.858;6.586;2023-02-14T22:11:14;4.10;99.90
14317;DHT22;7242;50.858;6.586;2023-02-14T22:14:15;4.00;99.90
14317;DHT22;7242;50.858;6.586;2023-02-14T22:17:15;4.10;99.90
14317;DHT22;7242;50.858;6.586;2023-02-14T22:20:16;4.10;99.90
14317;DHT22;7242;50.858;6.586;2023-02-14T22:23:17;4.10;99.90
14317;DHT22;7242;50.858;6.586;2023-02-14T22:26:23;4.00;99.90
14317;DHT22;7242;50.858;6.586;2023-02-14T22:29:24;4.00;99.90
14317;DHT22;7242;50.858;6.586;2023-02-14T22:32:26;3.90;99.90
14317;DHT22;7242;50.858;6.586;2023-02-14T22:35:27;3.80;99.90
14317;DHT22;7242;50.858;6.586;2023-02-14T22:38:28;3.70;99.90
14317;DHT22;7242;50.858;6.586;2023-02-14T22:41:29;3.60;99.90
14317;DHT22;7242;50.858;6.586;2023-02-14T22:44:30;3.60;99.90
14317;DHT22;7242;50.858;6.586;2023-02-14T22:47:31;3.60;99.90
14317;DHT22;7242;50.858;6.586;2023-02-14T22:50:32;2.40;99.90
14317;DHT22;7242;50.858;6.586;2023-02-14T22:53:36;3.70;99.90
14317;DHT22;7242;50.858;6.586;2023-02-14T22:56:39;3.70;99.90
14317;DHT22;7242;50.858;6.586;2023-02-14T22:59:40;3.70;99.90
14317;DHT22;7242;50.858;6.586;2023-02-14T23:02:41;3.70;99.90
14317;DHT22;7242;50.858;6.586;2023-02-14T23:05:42;3.60;99.90
14317;DHT22;7242;50.858;6.586;2023-02-14T23:08:45;3.60;99.90
14317;DHT22;7242;50.858;6.586;2023-02-14T23:11:46;3.60;99.90
14317;DHT22;7242;50.858;6.586;2023-02-14T23:14:47;3.60;99.90
14317;DHT22;7242;50.858;6.586;2023-02-14T23:18:11;3.60;99.90
14317;DHT22;7242;50.858;6.586;2023-02-14T23:21:30;3.60;99.90
14317;DHT22;7242;50.858;6.586;2023-02-14T23:24:52;3.60;99.90
14317;DHT22;7242;50.858;6.586;2023-02-14T23:27:53;3.50;99.90
14317;DHT22;7242;50.858;6.586;2023-02-14T23:30:59;3.60;99.90
14317;DHT22;7242;50.858;6.586;2023-02-14T23:34:00;3.70;99.90
14317;DHT22;7242;50.858;6.586;2023-02-14T23:37:01;3.70;99.90
14317;DHT22;7242;50.858;6.586;2023-02-14T23:40:03;3.60;99.90
14317;DHT22;7242;50.858;6.586;2023-02-14T23:43:03;3.40;99.90
14317;DHT22;7242;50.858;6.586;2023-02-14T23:46:04;3.40;99.90
14317;DHT22;7242;50.858;6.586;2023-02-14T23:49:05;3.40;99.90
14317;DHT22;7242;50.858;6.586;2023-02-14T23:52:07;3.40;99.90
14317;DHT22;7242;50.858;6.586;2023-02-14T23:55:08;3.50;99.90
14317;DHT22;7242;50.858;6.586;2023-02-14T23:58:09;3.50;99.90
